createdAt,value
2019-02-20T00:03:10.458Z,162.20
2019-02-20T00:08:16.135Z,175.25
2019-02-20T00:13:21.811Z,194.47
2019-02-20T00:18:27.442Z,117.82
2019-02-20T00:23:33.062Z,126.72
2019-02-20T00:28:38.682Z,107.55
2019-02-20T00:33:44.316Z,168.95
2019-02-20T00:38:49.934Z,83.47
2019-02-20T00:44:23.387Z,138.00
2019-02-20T00:49:33.593Z,160.90
2019-02-20T00:54:39.204Z,172.02
2019-02-20T00:59:44.878Z,99.00
2019-02-20T01:04:50.529Z,112.35
2019-02-20T01:09:56.218Z,101.05
2019-02-20T01:15:01.847Z,112.55
2019-02-20T01:20:07.939Z,101.70
2019-02-20T01:25:13.616Z,74.85
2019-02-20T01:30:19.461Z,72.20
2019-02-20T01:35:25.133Z,60.70
2019-02-20T01:40:30.753Z,72.27
2019-02-20T01:45:36.355Z,69.58
2019-02-20T01:50:41.977Z,62.27
2019-02-20T01:55:47.679Z,64.42
2019-02-20T02:00:53.357Z,69.65
2019-02-20T02:05:58.974Z,72.17
2019-02-20T02:11:04.748Z,66.50
2019-02-20T02:16:10.468Z,86.87
2019-02-20T02:21:16.122Z,85.28
2019-02-20T02:26:21.795Z,80.75
2019-02-20T02:31:27.398Z,59.55
2019-02-20T02:36:33.072Z,64.55
2019-02-20T02:41:38.786Z,66.85
2019-02-20T02:46:44.393Z,65.12
2019-02-20T02:51:50.065Z,55.55
2019-02-20T02:56:55.840Z,65.60
2019-02-20T03:02:01.529Z,67.25
2019-02-20T03:07:07.207Z,63.45
2019-02-20T03:12:12.813Z,62.35
2019-02-20T03:17:18.418Z,60.17
2019-02-20T03:22:24.113Z,78.20
2019-02-20T03:27:29.740Z,80.17
2019-02-20T03:32:35.412Z,73.52
2019-02-20T03:37:41.018Z,78.05
2019-02-20T03:42:46.695Z,79.25
2019-02-20T03:47:52.366Z,100.20
2019-02-20T03:52:58.051Z,57.13
2019-02-20T03:58:03.727Z,87.60
2019-02-20T04:03:09.400Z,80.83
2019-02-20T04:08:15.124Z,66.55
2019-02-20T04:13:20.690Z,76.07
2019-02-20T04:18:26.364Z,51.95
2019-02-20T04:23:32.157Z,74.58
2019-02-20T04:28:37.826Z,69.85
2019-02-20T04:33:43.510Z,63.30
2019-02-20T04:38:49.110Z,49.85
2019-02-20T04:43:54.813Z,54.40
2019-02-20T04:49:00.483Z,71.45
2019-02-20T04:54:12.863Z,80.95
2019-02-20T04:59:13.533Z,58.95
2019-02-20T05:04:19.220Z,59.80
2019-02-20T05:09:24.817Z,73.15
2019-02-20T05:14:30.640Z,108.87
2019-02-20T05:19:36.233Z,64.05
2019-02-20T05:24:41.876Z,63.10
2019-02-20T05:29:47.493Z,63.40
2019-02-20T05:34:53.166Z,60.40
2019-02-20T05:39:58.776Z,55.67
2019-02-20T05:45:04.549Z,63.25
2019-02-20T05:50:10.152Z,60.15
2019-02-20T05:55:15.768Z,54.03
2019-02-20T06:00:21.820Z,48.38
2019-02-20T06:05:27.426Z,43.85
2019-02-20T06:10:33.049Z,48.68
2019-02-20T06:15:38.751Z,47.78
2019-02-20T06:20:44.322Z,42.78
2019-02-20T06:25:49.954Z,43.90
2019-02-20T06:30:55.569Z,45.55
2019-02-20T06:36:01.276Z,44.63
2019-02-20T06:41:06.901Z,39.85
2019-02-20T06:46:12.555Z,41.48
2019-02-20T06:51:18.138Z,44.48
2019-02-20T06:56:23.832Z,44.10
2019-02-20T07:01:29.498Z,44.25
2019-02-20T07:07:08.072Z,45.92
2019-02-20T07:12:49.663Z,50.03
2019-02-20T07:18:36.512Z,55.12
2019-02-20T07:24:21.777Z,54.27
2019-02-20T07:29:45.009Z,52.50
2019-02-20T07:34:50.603Z,57.75
2019-02-20T07:39:57.390Z,62.40
2019-02-20T07:45:03.102Z,56.77
2019-02-20T07:50:09.800Z,57.05
2019-02-20T07:55:15.571Z,61.00
2019-02-20T08:00:21.174Z,79.40
2019-02-20T08:05:26.794Z,50.58
2019-02-20T08:10:32.460Z,51.68
2019-02-20T08:15:38.071Z,42.78
2019-02-20T08:20:43.681Z,40.70
2019-02-20T08:25:49.370Z,46.42
2019-02-20T08:30:55.172Z,41.68
2019-02-20T08:36:03.523Z,42.83
2019-02-20T08:41:09.123Z,44.65
2019-02-20T08:46:14.821Z,38.73
2019-02-20T08:51:20.486Z,39.42
2019-02-20T08:56:26.175Z,37.23
2019-02-20T09:01:31.770Z,41.08
2019-02-20T09:06:37.647Z,36.90
2019-02-20T09:11:45.458Z,40.60
2019-02-20T09:16:50.644Z,37.67
2019-02-20T09:21:56.634Z,43.33
2019-02-20T09:27:02.300Z,40.88
2019-02-20T09:32:07.967Z,34.35
2019-02-20T09:37:13.596Z,31.93
2019-02-20T09:42:20.897Z,36.75
2019-02-20T09:47:26.595Z,31.35
2019-02-20T09:52:32.204Z,28.47
2019-02-20T09:58:19.011Z,32.85
2019-02-20T10:03:24.743Z,26.97
2019-02-20T10:08:30.416Z,32.50
2019-02-20T10:13:36.087Z,28.95
2019-02-20T10:18:42.743Z,32.08
2019-02-20T10:23:48.361Z,25.68
2019-02-20T10:28:54.161Z,25.15
2019-02-20T10:33:59.860Z,23.35
2019-02-20T10:39:06.238Z,19.35
2019-02-20T10:44:11.876Z,20.85
2019-02-20T10:49:17.489Z,17.92
2019-02-20T10:54:23.909Z,18.87
2019-02-20T10:59:29.586Z,28.75
2019-02-20T11:04:35.392Z,22.93
2019-02-20T11:09:40.995Z,17.10
2019-02-20T11:14:46.707Z,19.42
2019-02-20T11:19:52.319Z,18.92
2019-02-20T11:24:58.037Z,16.93
2019-02-20T11:30:03.676Z,19.42
2019-02-20T11:35:09.478Z,18.15
2019-02-20T11:40:15.792Z,20.65
2019-02-20T11:45:21.602Z,18.87
2019-02-20T11:50:27.228Z,22.55
2019-02-20T11:55:32.832Z,22.00
2019-02-20T12:00:38.550Z,18.23
2019-02-20T12:05:45.141Z,26.42
2019-02-20T12:10:50.853Z,26.50
2019-02-20T12:15:56.468Z,23.92
2019-02-20T12:21:02.169Z,22.45
2019-02-20T12:26:07.894Z,25.77
2019-02-20T12:31:13.686Z,23.98
2019-02-20T12:36:19.338Z,20.48
2019-02-20T12:41:25.018Z,21.85
2019-02-20T12:46:30.740Z,16.95
2019-02-20T12:51:36.352Z,17.82
2019-02-20T12:56:44.245Z,16.42
2019-02-20T13:01:49.332Z,20.60
2019-02-20T13:06:59.530Z,17.27
2019-02-20T13:12:02.514Z,24.63
2019-02-20T13:17:08.140Z,16.57
2019-02-20T13:22:14.059Z,20.40
2019-02-20T13:27:22.819Z,21.27
2019-02-20T13:32:27.156Z,23.50
2019-02-20T13:37:32.868Z,18.17
2019-02-20T13:42:38.476Z,16.32
2019-02-20T13:47:44.157Z,25.48
2019-02-20T13:52:52.308Z,17.73
2019-02-20T13:57:57.234Z,19.40
2019-02-20T14:03:03.657Z,19.87
2019-02-20T14:08:09.273Z,17.87
2019-02-20T14:13:14.886Z,17.20
2019-02-20T14:18:20.833Z,17.57
2019-02-20T14:23:26.526Z,19.00
2019-02-20T14:28:32.146Z,21.05
2019-02-20T14:33:37.825Z,22.42
2019-02-20T14:38:43.561Z,24.27
2019-02-20T14:43:49.179Z,25.37
2019-02-20T14:48:54.800Z,25.95
2019-02-20T14:54:00.467Z,21.15
2019-02-20T14:59:06.151Z,30.60
2019-02-20T15:04:11.855Z,42.17
2019-02-20T15:09:17.460Z,21.45
2019-02-20T15:14:23.164Z,21.93
2019-02-20T15:19:29.013Z,20.32
2019-02-20T15:24:34.619Z,22.87
2019-02-20T15:29:45.274Z,23.92
2019-02-20T15:34:50.899Z,26.60
2019-02-20T15:39:56.575Z,21.23
2019-02-20T15:45:04.594Z,18.70
2019-02-20T15:50:12.763Z,23.22
2019-02-20T15:55:18.450Z,25.48
2019-02-20T16:00:25.549Z,19.25
2019-02-20T16:05:31.535Z,23.70
2019-02-20T16:10:37.231Z,23.75
2019-02-20T16:15:42.912Z,18.50
2019-02-20T16:20:53.661Z,20.10
2019-02-20T16:25:59.169Z,22.55
2019-02-20T16:31:04.836Z,25.08
2019-02-20T16:36:10.517Z,25.30
2019-02-20T16:41:16.641Z,25.17
2019-02-20T16:46:22.319Z,23.00
2019-02-20T16:51:28.109Z,26.27
2019-02-20T16:56:33.728Z,23.18
2019-02-20T17:01:39.429Z,23.50
2019-02-20T17:06:45.117Z,27.35
2019-02-20T17:11:50.725Z,33.90
2019-02-20T17:16:56.534Z,26.97
2019-02-20T17:22:02.300Z,33.20
2019-02-20T17:27:09.506Z,30.43
2019-02-20T17:32:15.190Z,32.73
2019-02-20T17:37:20.875Z,41.33
2019-02-20T17:42:26.519Z,36.38
2019-02-20T17:47:32.263Z,42.62
2019-02-20T17:52:39.762Z,43.38
2019-02-20T17:57:46.015Z,39.55
2019-02-20T18:02:51.746Z,42.33
2019-02-20T18:07:57.977Z,39.70
2019-02-20T18:13:04.046Z,41.65
2019-02-20T18:18:09.881Z,41.05
2019-02-20T18:23:16.104Z,43.45
2019-02-20T18:28:24.423Z,43.60
2019-02-20T18:33:29.202Z,57.40
2019-02-20T18:38:34.956Z,46.55
2019-02-20T18:43:40.594Z,48.48
2019-02-20T18:48:46.253Z,60.78
2019-02-20T18:53:51.888Z,110.92
2019-02-20T18:58:57.520Z,118.80
2019-02-20T19:04:03.169Z,110.10
2019-02-20T19:09:16.016Z,99.58
2019-02-20T19:14:33.745Z,64.92
2019-02-20T19:20:15.729Z,70.45
2019-02-20T19:26:01.479Z,64.30
2019-02-20T19:31:43.618Z,64.97
2019-02-20T19:37:33.462Z,78.03
2019-02-20T19:43:27.363Z,70.30
2019-02-20T19:49:15.079Z,69.60
2019-02-20T19:54:42.002Z,66.15
2019-02-20T19:59:53.739Z,66.10
2019-02-20T20:05:28.194Z,63.65
2019-02-20T20:11:18.724Z,65.72
2019-02-20T20:17:02.428Z,64.77
2019-02-20T20:22:50.887Z,60.48
2019-02-20T20:28:39.286Z,61.53
2019-02-20T20:34:22.341Z,57.40
2019-02-20T20:45:18.822Z,89.60
2019-02-20T20:51:03.540Z,108.52
2019-02-20T20:56:57.658Z,115.08
2019-02-20T21:02:15.791Z,137.88
2019-02-20T21:08:07.577Z,112.10
2019-02-20T21:13:48.347Z,96.82
2019-02-20T21:19:29.550Z,95.22
2019-02-20T21:25:08.701Z,96.12
2019-02-20T21:30:39.313Z,102.40
2019-02-20T21:36:13.975Z,131.27
2019-02-20T21:42:02.941Z,187.18
2019-02-20T21:47:50.634Z,211.85
2019-02-20T21:53:12.612Z,234.67
2019-02-20T21:58:50.682Z,176.93
2019-02-20T22:04:43.235Z,191.25
2019-02-20T22:10:41.166Z,95.55
2019-02-20T22:16:32.146Z,123.35
2019-02-20T22:22:27.631Z,77.35
2019-02-20T22:29:25.359Z,76.28
2019-02-20T22:35:04.106Z,65.15
2019-02-20T22:40:22.899Z,77.53
2019-02-20T22:46:07.262Z,69.45
2019-02-20T22:51:57.442Z,122.30
2019-02-20T22:57:36.261Z,111.60
2019-02-20T23:02:55.122Z,115.45
2019-02-20T23:08:10.684Z,85.70
2019-02-20T23:13:30.226Z,93.85
2019-02-20T23:18:32.742Z,96.65
2019-02-20T23:23:35.256Z,60.40
2019-02-20T23:28:37.778Z,58.05
2019-02-20T23:33:43.671Z,56.15
2019-02-20T23:38:46.187Z,64.77
2019-02-20T23:43:48.709Z,97.70
2019-02-20T23:53:53.334Z,48.90
